createdAt,value
2022-12-16T00:01:18.732Z,3.24
2022-12-16T00:03:49.145Z,3.14
2022-12-16T00:06:20.167Z,3.18
2022-12-16T00:08:48.037Z,3.19
2022-12-16T00:11:17.353Z,3.22
2022-12-16T00:13:45.166Z,3.22
2022-12-16T00:16:15.280Z,3.25
2022-12-16T00:18:43.719Z,2.92
2022-12-16T00:21:12.012Z,3.19
2022-12-16T00:23:41.897Z,3.21
2022-12-16T00:26:10.529Z,3.23
2022-12-16T00:28:40.736Z,3.76
2022-12-16T00:31:08.709Z,3.63
2022-12-16T00:33:36.953Z,4.25
2022-12-16T00:36:05.518Z,4.20
2022-12-16T00:38:33.407Z,3.86
2022-12-16T00:41:01.540Z,3.32
2022-12-16T00:43:29.506Z,3.63
2022-12-16T00:45:58.954Z,3.42
2022-12-16T00:48:26.814Z,3.45
2022-12-16T00:50:55.794Z,3.16
2022-12-16T00:53:25.687Z,3.57
2022-12-16T00:55:53.893Z,3.26
2022-12-16T00:58:21.767Z,3.11
2022-12-16T01:00:49.678Z,3.20
2022-12-16T01:03:22.005Z,3.19
2022-12-16T01:05:50.244Z,3.06
2022-12-16T01:08:18.444Z,3.06
2022-12-16T01:10:52.084Z,3.04
2022-12-16T01:13:20.730Z,2.69
2022-12-16T01:15:49.930Z,2.77
2022-12-16T01:18:18.791Z,2.66
2022-12-16T01:20:48.043Z,3.01
2022-12-16T01:23:15.870Z,3.01
2022-12-16T01:25:43.708Z,3.32
2022-12-16T01:28:11.591Z,3.24
2022-12-16T01:30:39.510Z,3.25
2022-12-16T01:33:07.356Z,3.28
2022-12-16T01:35:55.207Z,3.41
2022-12-16T01:38:25.468Z,3.46
2022-12-16T01:40:55.900Z,3.31
2022-12-16T01:43:26.494Z,3.17
2022-12-16T01:45:58.149Z,3.10
2022-12-16T01:48:39.963Z,3.17
2022-12-16T01:51:11.525Z,2.88
2022-12-16T01:53:43.902Z,2.94
2022-12-16T01:56:17.282Z,2.90
2022-12-16T01:58:47.085Z,2.97
2022-12-16T02:01:17.556Z,3.03
2022-12-16T02:03:46.077Z,3.15
2022-12-16T02:06:13.964Z,3.03
2022-12-16T02:08:43.123Z,3.05
2022-12-16T02:11:46.930Z,3.03
2022-12-16T02:14:30.177Z,2.97
2022-12-16T02:17:03.057Z,2.98
2022-12-16T02:20:01.754Z,2.96
2022-12-16T02:22:38.550Z,3.06
2022-12-16T02:25:33.849Z,3.01
2022-12-16T02:28:09.647Z,3.17
2022-12-16T02:30:49.276Z,3.11
2022-12-16T02:33:53.145Z,3.21
2022-12-16T02:36:33.420Z,2.30
2022-12-16T02:39:06.418Z,3.17
2022-12-16T02:41:44.278Z,3.31
2022-12-16T02:44:13.435Z,3.35
2022-12-16T02:46:44.415Z,3.16
2022-12-16T02:49:47.637Z,3.07
2022-12-16T02:52:17.022Z,2.82
2022-12-16T02:54:45.967Z,2.99
2022-12-16T02:57:29.635Z,2.88
2022-12-16T03:00:03.547Z,2.73
2022-12-16T03:02:39.429Z,2.49
2022-12-16T03:05:14.202Z,2.77
2022-12-16T03:07:44.427Z,2.78
2022-12-16T03:10:16.252Z,2.87
2022-12-16T03:12:46.937Z,2.66
2022-12-16T03:15:18.119Z,2.76
2022-12-16T03:17:49.471Z,2.85
2022-12-16T03:20:23.468Z,3.17
2022-12-16T03:22:55.792Z,3.19
2022-12-16T03:25:24.922Z,3.88
2022-12-16T03:28:00.389Z,3.47
2022-12-16T03:30:33.446Z,3.88
2022-12-16T03:33:05.528Z,3.65
2022-12-16T03:35:38.086Z,3.07
2022-12-16T03:38:09.986Z,2.69
2022-12-16T03:40:39.805Z,3.07
2022-12-16T03:43:09.084Z,2.99
2022-12-16T03:45:39.957Z,2.81
2022-12-16T03:48:11.411Z,2.91
2022-12-16T03:50:40.626Z,2.88
2022-12-16T03:53:09.957Z,2.87
2022-12-16T03:55:37.826Z,2.69
2022-12-16T03:58:05.676Z,2.60
2022-12-16T04:00:33.654Z,2.65
2022-12-16T04:03:01.684Z,2.66
2022-12-16T04:05:31.080Z,2.69
2022-12-16T04:08:02.208Z,2.60
2022-12-16T04:10:44.249Z,2.59
2022-12-16T04:13:29.903Z,2.33
2022-12-16T04:16:15.578Z,2.79
2022-12-16T04:19:01.375Z,2.69
2022-12-16T04:21:56.367Z,2.83
2022-12-16T04:24:27.136Z,1.90
2022-12-16T04:27:15.716Z,2.94
2022-12-16T04:29:57.868Z,2.18
2022-12-16T04:32:25.801Z,3.12
2022-12-16T04:34:52.962Z,3.09
2022-12-16T04:37:39.721Z,3.16
2022-12-16T04:40:26.279Z,3.25
2022-12-16T04:43:11.590Z,3.42
2022-12-16T04:45:57.927Z,3.33
2022-12-16T04:48:43.347Z,3.40
2022-12-16T04:51:28.782Z,3.31
2022-12-16T04:54:15.580Z,3.26
2022-12-16T04:57:01.105Z,3.20
2022-12-16T04:59:46.269Z,3.25
2022-12-16T05:02:31.575Z,3.26
2022-12-16T05:05:16.901Z,3.17
2022-12-16T05:08:02.317Z,3.31
2022-12-16T05:10:48.810Z,3.23
2022-12-16T05:13:34.809Z,3.26
2022-12-16T05:16:20.544Z,3.35
2022-12-16T05:19:05.720Z,2.97
2022-12-16T05:21:50.939Z,3.28
2022-12-16T05:24:36.230Z,3.29
2022-12-16T05:27:22.818Z,3.19
2022-12-16T05:30:08.210Z,3.20
2022-12-16T05:32:53.629Z,3.23
2022-12-16T05:35:49.451Z,3.07
2022-12-16T05:38:35.054Z,2.96
2022-12-16T05:41:20.087Z,2.85
2022-12-16T05:44:05.908Z,2.98
2022-12-16T05:46:51.455Z,3.04
2022-12-16T05:49:36.584Z,3.03
2022-12-16T05:52:24.520Z,3.03
2022-12-16T05:55:09.890Z,2.81
2022-12-16T05:57:55.097Z,2.72
2022-12-16T06:00:42.136Z,3.00
2022-12-16T06:03:27.554Z,3.12
2022-12-16T06:06:13.425Z,3.13
2022-12-16T06:08:58.844Z,3.18
2022-12-16T06:11:43.846Z,3.20
2022-12-16T06:14:29.281Z,3.21
2022-12-16T06:17:16.298Z,3.32
2022-12-16T06:20:01.904Z,3.32
2022-12-16T06:22:47.322Z,3.40
2022-12-16T06:25:32.635Z,3.45
2022-12-16T06:28:17.726Z,3.53
2022-12-16T06:31:03.178Z,3.64
2022-12-16T06:33:54.630Z,3.66
2022-12-16T06:36:40.758Z,3.82
2022-12-16T06:39:26.388Z,3.70
2022-12-16T06:42:11.531Z,3.86
2022-12-16T06:44:56.970Z,3.89
2022-12-16T06:47:42.382Z,3.79
2022-12-16T06:50:29.452Z,3.96
2022-12-16T06:53:15.024Z,4.14
2022-12-16T06:56:00.378Z,4.17
2022-12-16T06:58:45.773Z,4.11
2022-12-16T07:01:31.409Z,4.16
2022-12-16T07:04:16.658Z,4.20
2022-12-16T07:07:03.510Z,4.11
2022-12-16T07:09:48.931Z,4.20
2022-12-16T07:12:34.031Z,4.19
2022-12-16T07:15:19.433Z,4.36
2022-12-16T07:18:04.924Z,4.41
2022-12-16T07:20:50.595Z,4.52
2022-12-16T07:23:37.506Z,4.69
2022-12-16T07:26:22.989Z,4.68
2022-12-16T07:29:08.650Z,4.68
2022-12-16T07:31:54.123Z,4.91
2022-12-16T07:37:29.445Z,5.09
2022-12-16T07:46:05.364Z,5.59
2022-12-16T07:48:50.569Z,5.43
2022-12-16T07:51:36.388Z,5.50
2022-12-16T07:54:21.797Z,5.55
2022-12-16T07:57:13.761Z,5.62
2022-12-16T07:59:59.133Z,5.52
2022-12-16T08:02:44.364Z,5.66
2022-12-16T08:05:29.959Z,5.65
2022-12-16T08:08:19.225Z,5.85
2022-12-16T08:11:04.491Z,6.22
2022-12-16T08:13:51.142Z,6.48
2022-12-16T08:16:36.357Z,6.30
2022-12-16T08:19:21.512Z,6.33
2022-12-16T08:22:06.888Z,6.83
2022-12-16T08:24:53.809Z,7.20
2022-12-16T08:27:41.239Z,7.06
2022-12-16T08:30:29.194Z,7.27
2022-12-16T08:33:19.275Z,6.46
2022-12-16T08:36:05.720Z,7.48
2022-12-16T08:38:50.954Z,7.38
2022-12-16T08:41:36.479Z,7.17
2022-12-16T08:44:21.765Z,7.58
2022-12-16T08:47:08.633Z,7.95
2022-12-16T08:49:57.722Z,8.21
2022-12-16T08:52:47.172Z,8.44
2022-12-16T08:55:32.385Z,8.68
2022-12-16T08:58:17.673Z,8.75
2022-12-16T09:01:07.066Z,8.62
2022-12-16T09:03:54.635Z,9.26
2022-12-16T09:06:41.206Z,8.99
2022-12-16T09:09:27.448Z,9.16
2022-12-16T09:12:13.005Z,9.56
2022-12-16T09:15:09.965Z,10.05
2022-12-16T09:17:55.467Z,10.30
2022-12-16T09:20:42.737Z,10.92
2022-12-16T09:23:28.250Z,10.97
2022-12-16T09:26:13.770Z,11.52
2022-12-16T09:28:59.001Z,11.05
2022-12-16T09:31:44.213Z,11.12
2022-12-16T09:34:29.686Z,11.34
2022-12-16T09:37:16.574Z,11.93
2022-12-16T09:40:01.944Z,11.88
2022-12-16T09:42:55.961Z,11.65
2022-12-16T09:45:51.265Z,11.41
2022-12-16T09:48:47.760Z,11.84
2022-12-16T09:51:33.629Z,11.79
2022-12-16T09:54:21.804Z,11.71
2022-12-16T09:57:08.446Z,11.94
2022-12-16T09:59:59.265Z,12.14
2022-12-16T10:02:45.276Z,12.21
2022-12-16T10:05:33.360Z,12.54
2022-12-16T10:08:25.196Z,12.59
2022-12-16T10:11:17.658Z,12.80
2022-12-16T10:14:15.988Z,13.20
2022-12-16T10:17:10.241Z,13.14
2022-12-16T10:20:09.930Z,12.89
2022-12-16T10:23:02.092Z,12.55
2022-12-16T10:25:54.982Z,12.77
2022-12-16T10:28:58.158Z,12.87
2022-12-16T10:31:44.094Z,13.53
2022-12-16T10:34:32.650Z,13.46
2022-12-16T10:37:21.150Z,13.47
2022-12-16T10:40:26.165Z,13.42
2022-12-16T10:43:22.555Z,13.33
2022-12-16T10:46:12.435Z,13.89
2022-12-16T10:48:57.900Z,14.49
2022-12-16T10:51:47.228Z,14.60
2022-12-16T10:54:51.848Z,14.82
2022-12-16T10:57:49.157Z,14.51
2022-12-16T11:00:37.626Z,14.02
2022-12-16T11:03:39.737Z,14.24
2022-12-16T11:06:26.536Z,14.91
2022-12-16T11:09:12.079Z,14.85
2022-12-16T11:11:57.443Z,14.78
2022-12-16T11:15:27.583Z,14.80
2022-12-16T11:17:50.694Z,15.10
2022-12-16T11:20:40.179Z,15.12
2022-12-16T11:23:34.328Z,15.29
2022-12-16T11:26:36.653Z,15.66
2022-12-16T11:29:33.682Z,15.88
2022-12-16T11:32:29.387Z,15.91
2022-12-16T11:35:17.872Z,15.83
2022-12-16T11:38:06.542Z,15.84
2022-12-16T11:40:52.606Z,16.05
2022-12-16T11:43:38.998Z,16.17
2022-12-16T11:46:32.135Z,16.41
2022-12-16T11:49:24.696Z,16.42
2022-12-16T11:52:36.011Z,16.55
2022-12-16T11:56:04.596Z,16.35
2022-12-16T11:58:50.198Z,16.59
2022-12-16T12:01:44.895Z,16.17
2022-12-16T12:04:31.901Z,16.50
2022-12-16T12:07:46.942Z,16.49
2022-12-16T12:10:56.909Z,16.21
2022-12-16T12:14:01.281Z,16.41
2022-12-16T12:16:55.233Z,16.35
2022-12-16T12:19:50.635Z,16.25
2022-12-16T12:22:45.614Z,16.69
2022-12-16T12:25:44.238Z,16.46
2022-12-16T12:28:41.308Z,16.06
2022-12-16T12:31:41.864Z,16.18
2022-12-16T12:34:40.309Z,16.01
2022-12-16T12:37:34.424Z,15.83
2022-12-16T12:40:28.829Z,15.62
2022-12-16T12:43:15.484Z,15.80
2022-12-16T12:46:17.574Z,15.47
2022-12-16T12:49:10.392Z,15.44
2022-12-16T12:52:04.682Z,15.50
2022-12-16T12:54:55.135Z,14.74
2022-12-16T12:57:44.500Z,15.29
2022-12-16T13:00:37.040Z,15.58
2022-12-16T13:03:31.423Z,15.53
2022-12-16T13:06:18.919Z,15.92
2022-12-16T13:09:14.388Z,16.04
2022-12-16T13:12:41.944Z,16.09
2022-12-16T13:15:29.382Z,15.95
2022-12-16T13:18:50.801Z,15.48
2022-12-16T13:22:03.677Z,15.68
2022-12-16T13:25:01.172Z,15.70
2022-12-16T13:27:47.989Z,15.70
2022-12-16T13:30:42.772Z,15.57
2022-12-16T13:33:42.242Z,15.23
2022-12-16T13:36:29.702Z,15.33
2022-12-16T13:39:20.793Z,15.17
2022-12-16T13:42:09.205Z,15.17
2022-12-16T13:45:14.154Z,15.18
2022-12-16T13:48:19.540Z,15.27
2022-12-16T13:51:06.911Z,15.20
2022-12-16T13:53:56.805Z,14.96
2022-12-16T13:56:47.544Z,14.62
2022-12-16T13:59:37.107Z,14.65
2022-12-16T14:02:42.712Z,14.57
2022-12-16T14:05:36.971Z,14.23
2022-12-16T14:08:25.343Z,14.13
2022-12-16T14:11:17.914Z,14.23
2022-12-16T14:14:11.698Z,13.82
2022-12-16T14:17:10.161Z,14.02
2022-12-16T14:20:13.105Z,13.68
2022-12-16T14:23:14.914Z,13.83
2022-12-16T14:26:15.923Z,13.75
2022-12-16T14:29:03.256Z,13.65
2022-12-16T14:31:54.568Z,13.48
2022-12-16T14:34:41.427Z,13.43
2022-12-16T14:37:32.009Z,13.35
2022-12-16T14:40:17.625Z,13.39
2022-12-16T14:43:05.305Z,13.45
2022-12-16T14:45:55.470Z,13.42
2022-12-16T14:48:49.543Z,13.03
2022-12-16T14:51:44.305Z,13.01
2022-12-16T14:54:47.094Z,12.86
2022-12-16T14:57:35.037Z,12.93
2022-12-16T15:00:31.712Z,12.91
2022-12-16T15:03:24.278Z,12.81
2022-12-16T15:06:12.647Z,12.73
2022-12-16T15:09:06.818Z,12.66
2022-12-16T15:11:53.637Z,12.64
2022-12-16T15:14:45.070Z,12.60
2022-12-16T15:17:39.623Z,12.85
2022-12-16T15:20:35.437Z,12.82
2022-12-16T15:23:22.239Z,12.73
2022-12-16T15:26:12.706Z,12.38
2022-12-16T15:29:01.038Z,12.43
2022-12-16T15:31:51.070Z,12.50
2022-12-16T15:34:42.976Z,12.46
2022-12-16T15:37:49.108Z,12.23
2022-12-16T15:40:42.451Z,12.37
2022-12-16T15:43:46.886Z,12.13
2022-12-16T15:46:38.607Z,12.45
2022-12-16T15:49:33.717Z,12.31
2022-12-16T15:52:19.281Z,12.41
2022-12-16T15:55:10.166Z,12.39
2022-12-16T15:57:57.158Z,12.44
2022-12-16T16:00:44.872Z,12.47
2022-12-16T16:03:42.352Z,12.33
2022-12-16T16:06:36.762Z,12.37
2022-12-16T16:09:31.898Z,12.03
2022-12-16T16:12:23.668Z,12.12
2022-12-16T16:15:10.229Z,12.06
2022-12-16T16:17:56.647Z,12.01
2022-12-16T16:20:42.219Z,11.90
2022-12-16T16:23:28.018Z,11.40
2022-12-16T16:26:14.188Z,11.99
2022-12-16T16:28:59.622Z,11.95
2022-12-16T16:31:46.601Z,11.87
2022-12-16T16:34:32.137Z,11.72
2022-12-16T16:37:18.029Z,11.69
2022-12-16T16:40:03.541Z,11.54
2022-12-16T16:42:49.434Z,11.32
2022-12-16T16:45:35.149Z,11.41
2022-12-16T16:48:28.336Z,11.36
2022-12-16T16:51:15.602Z,10.34
2022-12-16T16:54:01.226Z,11.27
2022-12-16T16:56:49.599Z,11.26
2022-12-16T16:59:34.707Z,11.14
2022-12-16T17:02:20.250Z,11.14
2022-12-16T17:05:07.321Z,11.03
2022-12-16T17:07:54.159Z,11.14
2022-12-16T17:10:39.655Z,11.13
2022-12-16T17:13:24.591Z,11.09
2022-12-16T17:16:10.133Z,10.80
2022-12-16T17:18:55.539Z,11.07
2022-12-16T17:21:42.227Z,11.09
2022-12-16T17:24:27.776Z,11.00
2022-12-16T17:27:12.863Z,10.98
2022-12-16T17:29:58.243Z,11.07
2022-12-16T17:32:43.714Z,11.12
2022-12-16T17:35:30.048Z,10.85
2022-12-16T17:38:17.335Z,11.12
2022-12-16T17:41:02.607Z,10.83
2022-12-16T17:43:48.180Z,10.88
2022-12-16T17:46:33.517Z,10.89
2022-12-16T17:49:18.954Z,10.80
2022-12-16T17:52:04.345Z,10.92
2022-12-16T17:54:50.968Z,10.91
2022-12-16T17:57:36.405Z,10.78
2022-12-16T18:00:22.426Z,10.62
2022-12-16T18:03:08.075Z,10.66
2022-12-16T18:05:53.895Z,10.57
2022-12-16T18:08:39.252Z,10.51
2022-12-16T18:11:25.946Z,10.22
2022-12-16T18:14:11.446Z,10.34
2022-12-16T18:16:56.800Z,10.29
2022-12-16T18:19:42.185Z,10.27
2022-12-16T18:22:27.496Z,10.25
2022-12-16T18:25:24.071Z,9.96
2022-12-16T18:28:11.078Z,10.15
2022-12-16T18:30:56.634Z,10.15
2022-12-16T18:33:41.727Z,9.85
2022-12-16T18:36:27.111Z,9.26
2022-12-16T18:39:12.481Z,9.96
2022-12-16T18:42:01.214Z,9.60
2022-12-16T18:44:47.877Z,9.95
2022-12-16T18:47:33.303Z,9.92
2022-12-16T18:50:28.677Z,9.90
2022-12-16T18:53:17.058Z,9.85
2022-12-16T18:56:02.341Z,9.79
2022-12-16T18:58:51.855Z,9.51
2022-12-16T19:01:38.922Z,9.70
2022-12-16T19:04:24.271Z,9.69
2022-12-16T19:07:09.661Z,9.26
2022-12-16T19:09:55.131Z,9.56
2022-12-16T19:12:40.481Z,9.54
2022-12-16T19:15:26.754Z,9.58
2022-12-16T19:18:13.415Z,9.54
2022-12-16T19:20:58.866Z,9.49
2022-12-16T19:23:44.364Z,9.53
2022-12-16T19:26:29.857Z,9.42
2022-12-16T19:29:14.979Z,9.48
2022-12-16T19:32:00.357Z,9.44
2022-12-16T19:34:52.150Z,9.45
2022-12-16T19:37:37.713Z,9.43
2022-12-16T19:40:23.874Z,9.43
2022-12-16T19:43:11.493Z,9.43
2022-12-16T19:45:57.073Z,9.55
2022-12-16T19:48:42.291Z,9.46
2022-12-16T19:51:29.045Z,9.50
2022-12-16T19:54:14.292Z,9.39
2022-12-16T19:56:59.299Z,9.33
2022-12-16T19:59:44.911Z,9.27
2022-12-16T20:02:31.206Z,9.19
2022-12-16T20:05:16.909Z,8.72
2022-12-16T20:08:06.408Z,9.26
2022-12-16T20:10:51.941Z,9.14
2022-12-16T20:13:37.022Z,9.09
2022-12-16T20:16:23.119Z,9.10
2022-12-16T20:19:08.502Z,7.84
2022-12-16T20:21:56.521Z,9.09
2022-12-16T20:25:01.686Z,9.05
2022-12-16T20:27:46.981Z,9.02
2022-12-16T20:30:32.350Z,9.00
2022-12-16T20:33:17.854Z,9.00
2022-12-16T20:36:13.801Z,8.68
2022-12-16T20:38:59.203Z,8.81
2022-12-16T20:41:45.909Z,8.71
2022-12-16T20:44:31.321Z,8.46
2022-12-16T20:47:16.913Z,8.79
2022-12-16T20:50:02.361Z,8.75
2022-12-16T20:52:47.782Z,8.75
2022-12-16T20:55:33.063Z,8.60
2022-12-16T20:58:19.858Z,8.55
2022-12-16T21:01:10.364Z,8.55
2022-12-16T21:07:02.798Z,8.36
2022-12-16T21:09:47.995Z,8.58
2022-12-16T21:12:33.434Z,8.59
2022-12-16T21:15:20.396Z,8.36
2022-12-16T21:18:05.911Z,8.01
2022-12-16T21:21:02.938Z,8.36
2022-12-16T21:23:48.650Z,8.23
2022-12-16T21:26:34.025Z,8.27
2022-12-16T21:29:19.153Z,8.03
2022-12-16T21:32:05.944Z,7.71
2022-12-16T21:34:51.821Z,7.85
2022-12-16T21:37:37.663Z,8.01
2022-12-16T21:40:23.651Z,7.86
2022-12-16T21:43:09.060Z,7.42
2022-12-16T21:49:01.354Z,7.76
2022-12-16T21:51:46.782Z,7.72
2022-12-16T21:54:32.263Z,7.73
2022-12-16T21:57:17.700Z,7.70
2022-12-16T22:00:03.214Z,7.67
2022-12-16T22:02:59.863Z,7.57
2022-12-16T22:05:48.567Z,7.63
2022-12-16T22:08:34.007Z,7.55
2022-12-16T22:11:26.529Z,7.56
2022-12-16T22:14:11.728Z,7.32
2022-12-16T22:16:57.184Z,7.78
2022-12-16T22:19:42.939Z,7.67
2022-12-16T22:22:29.871Z,7.51
2022-12-16T22:25:15.330Z,7.62
2022-12-16T22:28:00.754Z,7.57
2022-12-16T22:30:46.206Z,7.64
2022-12-16T22:33:31.458Z,7.40
2022-12-16T22:36:18.854Z,7.90
2022-12-16T22:39:05.567Z,7.95
2022-12-16T22:41:50.209Z,7.72
2022-12-16T22:44:35.613Z,7.65
2022-12-16T22:47:21.017Z,7.55
2022-12-16T22:50:06.301Z,7.77
2022-12-16T22:52:52.000Z,7.69
2022-12-16T22:55:38.753Z,7.59
2022-12-16T22:58:28.190Z,7.70
2022-12-16T23:01:13.863Z,6.53
2022-12-16T23:03:59.340Z,7.42
2022-12-16T23:06:44.712Z,7.41
2022-12-16T23:09:30.247Z,7.42
2022-12-16T23:12:17.082Z,7.33
2022-12-16T23:15:02.394Z,6.99
2022-12-16T23:17:47.569Z,7.16
2022-12-16T23:20:33.044Z,7.12
2022-12-16T23:23:19.089Z,7.38
2022-12-16T23:26:20.059Z,7.50
2022-12-16T23:29:10.322Z,7.06
2022-12-16T23:31:56.542Z,6.60
2022-12-16T23:32:31.380Z,7.77
2022-12-16T23:34:45.795Z,7.09
2022-12-16T23:37:31.387Z,7.01
2022-12-16T23:40:16.603Z,7.02
2022-12-16T23:43:01.191Z,6.88
2022-12-16T23:45:48.059Z,6.78
2022-12-16T23:48:33.732Z,6.76
2022-12-16T23:51:19.161Z,6.85
2022-12-16T23:54:05.577Z,6.94
2022-12-16T23:56:51.040Z,7.05
2022-12-16T23:59:36.394Z,7.20
